Time;durP1;ratioP1;P1;durP2;ratioP2;P2;SDS_P1;SDS_P2;PMS_P1;PMS_P2;Temp;Humidity;BMP_temperature;BMP_pressure;BME280_temperature;BME280_humidity;BME280_pressure;Samples;Min_cycle;Max_cycle;Signal;HPM_P1;HPM_P2
2023/12/30 00:00:21;;;;;;;37.85;35.50;;;4.50;99.90;;;;;;5157735;27;20068;-75
2023/12/30 00:02:48;;;;;;;0.10;0.10;;;4.50;99.90;;;;;;5159510;27;20034;-74
2023/12/30 00:05:14;;;;;;;0.08;0.08;;;4.40;99.90;;;;;;5156304;27;20027;-75
2023/12/30 00:07:40;;;;;;;0.10;0.10;;;4.40;99.90;;;;;;5156844;27;20014;-75
2023/12/30 00:10:07;;;;;;;0.10;0.10;;;4.40;99.90;;;;;;5156342;27;20038;-74
2023/12/30 00:12:33;;;;;;;15.13;14.32;;;4.50;99.90;;;;;;5157998;27;20040;-74
2023/12/30 00:14:59;;;;;;;0.30;0.30;;;4.50;99.90;;;;;;5154261;27;20026;-75
2023/12/30 00:17:25;;;;;;;0.40;0.40;;;4.50;99.90;;;;;;5154426;27;20027;-75
2023/12/30 00:19:53;;;;;;;0.10;0.10;;;4.50;99.90;;;;;;5154996;27;20719;-75
2023/12/30 00:22:43;;;;;;;0.10;0.10;;;4.40;99.90;;;;;;5154324;27;20035;-75
2023/12/30 00:25:59;;;;;;;0.10;0.10;;;4.40;99.90;;;;;;5153642;27;20029;-75
2023/12/30 00:28:25;;;;;;;0.00;0.00;;;4.50;99.90;;;;;;5132691;27;20024;-75
2023/12/30 00:30:52;;;;;;;0.10;0.10;;;4.40;99.90;;;;;;5131820;28;20035;-74
2023/12/30 00:33:18;;;;;;;0.00;0.00;;;4.40;99.90;;;;;;5118246;27;20024;-75
2023/12/30 00:35:45;;;;;;;0.10;0.10;;;4.40;99.90;;;;;;5138665;27;20032;-75
2023/12/30 00:38:12;;;;;;;2.83;2.72;;;4.40;99.90;;;;;;5137506;27;20053;-75
2023/12/30 00:41:13;;;;;;;0.05;0.05;;;4.40;99.90;;;;;;5137428;28;20011;-75
2023/12/30 00:43:40;;;;;;;3.70;3.50;;;4.40;99.90;;;;;;5135110;27;20035;-75
2023/12/30 00:46:07;;;;;;;0.10;0.10;;;4.30;99.90;;;;;;5127205;28;20012;-75
2023/12/30 00:48:34;;;;;;;0.38;0.38;;;4.30;99.90;;;;;;5102636;28;20036;-75
2023/12/30 00:51:01;;;;;;;0.10;0.10;;;4.30;99.90;;;;;;5102527;28;20107;-75
2023/12/30 00:53:29;;;;;;;0.10;0.10;;;4.30;99.90;;;;;;5097568;28;20016;-75
2023/12/30 00:55:56;;;;;;;0.10;0.10;;;4.30;99.90;;;;;;5094664;28;20032;-75
2023/12/30 00:58:22;;;;;;;0.00;0.00;;;4.40;99.90;;;;;;5093722;28;20666;-75
2023/12/30 01:00:50;;;;;;;0.10;0.10;;;4.30;99.90;;;;;;5094890;28;20024;-75
2023/12/30 01:03:18;;;;;;;0.10;0.10;;;4.30;99.90;;;;;;5121847;22;20048;-75
2023/12/30 01:05:45;;;;;;;0.10;0.10;;;4.30;99.90;;;;;;5096390;28;20217;-75
2023/12/30 01:08:16;;;;;;;0.10;0.10;;;4.30;99.90;;;;;;5095496;28;20062;-75
2023/12/30 01:10:44;;;;;;;0.98;0.98;;;4.20;99.90;;;;;;5094015;28;20020;-75
2023/12/30 01:13:12;;;;;;;0.00;0.00;;;4.20;99.90;;;;;;5096708;28;20024;-75
2023/12/30 01:15:43;;;;;;;0.00;0.00;;;4.20;99.90;;;;;;5093517;28;20075;-75
2023/12/30 01:18:09;;;;;;;0.00;0.00;;;4.20;99.90;;;;;;5099311;28;20039;-75
2023/12/30 01:20:36;;;;;;;0.45;0.45;;;4.20;99.90;;;;;;5084933;28;20020;-75
2023/12/30 01:23:03;;;;;;;0.10;0.10;;;4.00;99.90;;;;;;5103277;28;20028;-75
2023/12/30 01:25:28;;;;;;;1.52;1.45;;;4.10;99.90;;;;;;5086164;28;20112;-74
2023/12/30 01:27:55;;;;;;;4.40;4.30;;;4.10;99.90;;;;;;5090003;28;20255;-75
2023/12/30 01:30:23;;;;;;;48.50;43.75;;;3.90;99.90;;;;;;5106094;28;20024;-75
2023/12/30 01:32:49;;;;;;;2.70;2.60;;;4.10;99.90;;;;;;5104952;28;20028;-76
2023/12/30 01:35:18;;;;;;;0.00;0.00;;;4.10;99.90;;;;;;5105263;28;20116;-75
2023/12/30 01:37:53;;;;;;;0.20;0.20;;;4.10;99.90;;;;;;5103502;28;20016;-76
2023/12/30 01:40:18;;;;;;;0.00;0.00;;;4.00;99.90;;;;;;5086434;28;20099;-75
2023/12/30 01:42:45;;;;;;;0.00;0.00;;;4.00;99.90;;;;;;5101360;28;20087;-75
2023/12/30 01:45:12;;;;;;;0.20;0.20;;;;;;;;;;5098196;28;20020;-75
2023/12/30 01:47:38;;;;;;;0.00;0.00;;;4.10;99.90;;;;;;5079239;28;20741;-75
2023/12/30 01:50:09;;;;;;;3.00;2.90;;;4.10;99.90;;;;;;5080771;28;20036;-75
2023/12/30 01:52:36;;;;;;;0.00;0.00;;;4.10;99.90;;;;;;5096124;28;20114;-75
2023/12/30 01:55:05;;;;;;;0.10;0.10;;;4.10;99.90;;;;;;5100466;28;20307;-75
2023/12/30 01:57:32;;;;;;;24.60;23.23;;;;;;;;;;5100276;28;20031;-74
2023/12/30 02:00:04;;;;;;;13.65;12.95;;;4.10;99.90;;;;;;5097257;28;20149;-75
2023/12/30 02:02:35;;;;;;;4.53;4.32;;;4.00;99.90;;;;;;5110046;28;20046;-75
2023/12/30 02:05:01;;;;;;;0.10;0.10;;;4.00;99.90;;;;;;5120869;28;20047;-74
2023/12/30 02:07:28;;;;;;;0.00;0.00;;;4.00;99.90;;;;;;5126773;28;20046;-75
2023/12/30 02:09:54;;;;;;;0.10;0.10;;;4.00;99.90;;;;;;5116346;28;20008;-74
2023/12/30 02:12:20;;;;;;;0.10;0.10;;;4.00;99.90;;;;;;5114807;28;20053;-74
2023/12/30 02:14:46;;;;;;;0.10;0.10;;;3.90;99.90;;;;;;5111980;28;20023;-74
2023/12/30 02:17:12;;;;;;;0.10;0.10;;;4.00;99.90;;;;;;5112520;28;20014;-74
2023/12/30 02:19:39;;;;;;;0.88;0.85;;;3.90;99.90;;;;;;5115332;28;20064;-74
2023/12/30 02:22:07;;;;;;;36.97;9.73;;;3.90;99.90;;;;;;5113610;28;20054;-75
2023/12/30 02:24:34;;;;;;;1.02;1.02;;;1.20;99.90;;;;;;5123431;28;20066;-75
2023/12/30 02:27:02;;;;;;;1.48;1.38;;;;;;;;;;5125363;28;20024;-75
2023/12/30 02:29:29;;;;;;;0.45;0.45;;;3.90;99.90;;;;;;5123641;28;20030;-74
2023/12/30 02:31:55;;;;;;;0.00;0.00;;;3.90;99.90;;;;;;5125191;28;20053;-76
2023/12/30 02:34:21;;;;;;;0.08;0.08;;;3.90;99.90;;;;;;5124737;28;20019;-74
2023/12/30 02:36:50;;;;;;;0.10;0.10;;;3.90;99.90;;;;;;5120660;28;20308;-75
2023/12/30 02:39:18;;;;;;;0.10;0.10;;;3.20;99.90;;;;;;5116870;28;20035;-74
2023/12/30 02:41:45;;;;;;;0.10;0.10;;;3.80;99.90;;;;;;5118699;28;20054;-74
2023/12/30 02:44:15;;;;;;;0.10;0.10;;;3.80;99.90;;;;;;5117750;28;20024;-74
2023/12/30 02:46:43;;;;;;;0.00;0.00;;;3.70;99.90;;;;;;5118693;28;20141;-75
2023/12/30 02:49:09;;;;;;;0.03;0.03;;;3.60;99.90;;;;;;5119680;28;20628;-75
2023/12/30 02:51:36;;;;;;;0.00;0.00;;;;;;;;;;5114610;28;20058;-74
2023/12/30 02:54:01;;;;;;;0.08;0.08;;;3.60;99.90;;;;;;5105383;28;20032;-74
2023/12/30 02:56:27;;;;;;;0.00;0.00;;;3.60;99.90;;;;;;5126474;28;20067;-75
2023/12/30 02:58:56;;;;;;;0.10;0.10;;;3.60;99.90;;;;;;5124553;28;20297;-75
2023/12/30 03:01:25;;;;;;;0.10;0.10;;;3.60;99.90;;;;;;5118401;28;20012;-75
2023/12/30 03:03:54;;;;;;;0.38;0.38;;;3.60;99.90;;;;;;5118676;28;20012;-75
2023/12/30 03:06:23;;;;;;;0.10;0.10;;;3.60;99.90;;;;;;5116275;28;20079;-75
2023/12/30 03:08:52;;;;;;;0.00;0.00;;;3.60;99.90;;;;;;5117903;28;20075;-74
2023/12/30 03:11:19;;;;;;;0.10;0.10;;;3.60;99.90;;;;;;5117313;28;20018;-75
2023/12/30 03:13:53;;;;;;;0.10;0.10;;;3.60;99.90;;;;;;5119317;28;20024;-75
2023/12/30 03:16:22;;;;;;;0.10;0.10;;;3.60;99.90;;;;;;5122511;28;20100;-75
2023/12/30 03:18:48;;;;;;;0.00;0.00;;;3.60;99.90;;;;;;5124898;28;20023;-75
2023/12/30 03:21:18;;;;;;;0.10;0.10;;;3.60;99.90;;;;;;5125301;28;20092;-75
2023/12/30 03:23:45;;;;;;;0.70;0.65;;;3.50;99.90;;;;;;5122707;28;20150;-75
2023/12/30 03:26:11;;;;;;;0.10;0.10;;;3.50;99.90;;;;;;5114414;28;20014;-74
2023/12/30 03:28:43;;;;;;;0.10;0.10;;;3.60;99.90;;;;;;5114011;28;20098;-74
2023/12/30 03:31:28;;;;;;;0.10;0.10;;;3.50;99.90;;;;;;5121927;28;20032;-74
2023/12/30 03:33:55;;;;;;;1.20;0.95;;;3.50;99.90;;;;;;5120623;28;20019;-74
2023/12/30 03:36:22;;;;;;;0.10;0.10;;;3.40;99.90;;;;;;5110395;28;20036;-73
2023/12/30 03:38:52;;;;;;;0.10;0.10;;;3.40;99.90;;;;;;5109189;28;20031;-73
2023/12/30 03:41:18;;;;;;;1.40;1.40;;;3.40;99.90;;;;;;5108726;28;20027;-73
2023/12/30 03:43:45;;;;;;;0.10;0.10;;;3.30;99.90;;;;;;5109710;28;20114;-73
2023/12/30 03:46:11;;;;;;;5.57;5.18;;;3.30;99.90;;;;;;5104718;28;20095;-73
2023/12/30 03:48:37;;;;;;;8.65;8.18;;;3.40;99.90;;;;;;5097743;28;20031;-74
2023/12/30 03:51:05;;;;;;;0.00;0.00;;;3.40;99.90;;;;;;5089814;28;20047;-73
2023/12/30 03:53:32;;;;;;;0.10;0.10;;;3.50;99.90;;;;;;5090683;28;20020;-73
2023/12/30 03:55:58;;;;;;;0.10;0.10;;;3.40;99.90;;;;;;5091620;28;20027;-73
2023/12/30 03:58:24;;;;;;;0.03;0.03;;;3.50;99.90;;;;;;5091158;28;20044;-74
2023/12/30 04:00:53;;;;;;;0.57;0.57;;;2.40;99.90;;;;;;5089860;28;20185;-73
2023/12/30 04:03:19;;;;;;;8.50;8.07;;;3.50;99.90;;;;;;5086950;28;20596;-73
2023/12/30 04:05:46;;;;;;;7.68;7.22;;;4.90;99.90;;;;;;5088718;28;20024;-73
2023/12/30 04:08:12;;;;;;;0.08;0.08;;;3.60;99.90;;;;;;5089794;28;20095;-74
2023/12/30 04:10:39;;;;;;;0.03;0.03;;;3.50;99.90;;;;;;5094135;28;20083;-74
2023/12/30 04:13:07;;;;;;;0.10;0.10;;;3.50;99.90;;;;;;5090392;28;20024;-73
2023/12/30 04:15:32;;;;;;;0.08;0.08;;;3.60;99.90;;;;;;5090834;28;20027;-73
2023/12/30 04:17:58;;;;;;;0.03;0.03;;;3.60;99.90;;;;;;5107893;28;20024;-74
2023/12/30 04:20:24;;;;;;;0.10;0.10;;;3.50;99.90;;;;;;5110561;28;20051;-74
2023/12/30 04:22:50;;;;;;;1.45;1.45;;;3.60;99.90;;;;;;5121529;28;20031;-74
2023/12/30 04:25:19;;;;;;;0.60;0.60;;;3.60;99.90;;;;;;5114311;28;20035;-74
2023/12/30 04:27:45;;;;;;;0.10;0.10;;;3.60;99.90;;;;;;5117105;28;20034;-74
2023/12/30 04:30:13;;;;;;;0.00;0.00;;;3.60;99.90;;;;;;5118404;28;20022;-74
2023/12/30 04:32:39;;;;;;;1.17;1.15;;;3.70;99.90;;;;;;5119643;28;20034;-74
2023/12/30 04:35:06;;;;;;;0.10;0.10;;;3.70;99.90;;;;;;5109912;28;20065;-74
2023/12/30 04:37:32;;;;;;;0.05;0.05;;;;;;;;;;5111654;28;20061;-73
2023/12/30 04:39:59;;;;;;;0.00;0.00;;;3.80;99.90;;;;;;5108666;28;20080;-74
2023/12/30 04:42:25;;;;;;;0.10;0.10;;;3.80;99.90;;;;;;5111987;28;20662;-73
2023/12/30 04:44:50;;;;;;;0.10;0.10;;;3.80;99.90;;;;;;5112738;28;20045;-73
2023/12/30 04:47:17;;;;;;;0.00;0.00;;;3.70;99.90;;;;;;5109775;28;20035;-73
2023/12/30 04:49:43;;;;;;;0.10;0.10;;;3.70;99.90;;;;;;5109154;28;20015;-73
2023/12/30 04:52:11;;;;;;;0.10;0.10;;;3.80;99.90;;;;;;5109668;28;20103;-73
2023/12/30 04:54:42;;;;;;;0.10;0.10;;;3.80;99.90;;;;;;5106697;28;20246;-73
2023/12/30 04:57:32;;;;;;;0.10;0.10;;;3.90;99.90;;;;;;5108217;28;20661;-74
2023/12/30 04:59:58;;;;;;;0.00;0.00;;;3.90;99.90;;;;;;5086729;28;20024;-74
2023/12/30 05:02:25;;;;;;;0.70;0.68;;;3.80;99.90;;;;;;5085086;28;20044;-73
2023/12/30 05:04:53;;;;;;;2.85;2.75;;;3.90;99.90;;;;;;5086182;28;20035;-73
2023/12/30 05:07:20;;;;;;;0.10;0.10;;;6.60;99.90;;;;;;5069083;28;20039;-73
2023/12/30 05:09:46;;;;;;;0.10;0.10;;;3.80;99.90;;;;;;5088886;28;20048;-74
2023/12/30 05:12:13;;;;;;;0.00;0.00;;;3.80;99.90;;;;;;5098941;28;20071;-75
2023/12/30 05:14:38;;;;;;;0.08;0.08;;;3.30;99.90;;;;;;5096416;28;20078;-73
2023/12/30 05:17:05;;;;;;;0.00;0.00;;;3.70;99.90;;;;;;5095981;28;20028;-74
2023/12/30 05:19:31;;;;;;;0.10;0.10;;;3.70;99.90;;;;;;5093988;28;20028;-73
2023/12/30 05:21:57;;;;;;;0.10;0.10;;;3.70;99.90;;;;;;5093593;28;20285;-74
2023/12/30 05:24:23;;;;;;;0.05;0.05;;;3.70;99.90;;;;;;5094129;28;20035;-73
2023/12/30 05:26:49;;;;;;;8.85;1.70;;;3.80;99.90;;;;;;5093618;28;20829;-73
2023/12/30 05:29:16;;;;;;;0.10;0.10;;;3.90;99.90;;;;;;5098229;28;20012;-74
2023/12/30 05:31:42;;;;;;;1.17;1.17;;;3.90;99.90;;;;;;5103424;28;20614;-74
2023/12/30 05:34:09;;;;;;;3.20;3.10;;;3.90;99.90;;;;;;5118402;28;20020;-74
2023/12/30 05:36:37;;;;;;;0.10;0.10;;;4.00;99.90;;;;;;5115376;28;20107;-74
2023/12/30 05:39:04;;;;;;;0.10;0.10;;;4.50;99.90;;;;;;5117293;28;20020;-75
2023/12/30 05:41:30;;;;;;;0.30;0.30;;;4.10;99.90;;;;;;5118791;28;20016;-74
2023/12/30 05:43:56;;;;;;;0.00;0.00;;;4.10;99.90;;;;;;5118197;28;20712;-74
2023/12/30 05:46:22;;;;;;;0.00;0.00;;;4.10;99.90;;;;;;5124044;28;20015;-73
2023/12/30 05:48:49;;;;;;;0.10;0.10;;;4.20;99.90;;;;;;5121426;28;20487;-74
2023/12/30 05:51:16;;;;;;;0.57;0.57;;;4.20;99.90;;;;;;5124666;28;20043;-74
2023/12/30 05:53:43;;;;;;;0.10;0.10;;;4.20;99.90;;;;;;5125135;28;20037;-73
2023/12/30 05:56:09;;;;;;;0.10;0.10;;;4.30;99.90;;;;;;5122464;28;20016;-74
2023/12/30 05:58:37;;;;;;;0.00;0.00;;;4.40;99.90;;;;;;5117799;28;20028;-76
2023/12/30 06:01:03;;;;;;;0.05;0.05;;;4.30;99.90;;;;;;5115142;28;20074;-76
2023/12/30 06:03:29;;;;;;;0.03;0.03;;;4.30;99.90;;;;;;5111573;28;20043;-77
2023/12/30 06:05:56;;;;;;;0.00;0.00;;;;;;;;;;5115253;28;20420;-75
2023/12/30 06:08:41;;;;;;;0.00;0.00;;;4.30;99.90;;;;;;5121775;28;20020;-81
2023/12/30 06:11:09;;;;;;;0.15;0.15;;;4.30;99.90;;;;;;5113292;28;20012;-77
2023/12/30 06:13:35;;;;;;;0.00;0.00;;;4.30;99.90;;;;;;5113017;28;20012;-74
2023/12/30 06:16:02;;;;;;;0.10;0.10;;;4.40;99.90;;;;;;5113837;28;20091;-74
2023/12/30 06:18:30;;;;;;;0.00;0.00;;;4.40;99.90;;;;;;5117410;28;20104;-74
2023/12/30 06:21:03;;;;;;;5.03;3.22;;;4.40;99.90;;;;;;5118191;28;20184;-74
2023/12/30 06:23:31;;;;;;;;;;;4.40;99.90;;;;;;5114816;28;20653;-74
2023/12/30 06:25:58;;;;;;;0.00;0.00;;;4.50;99.90;;;;;;5116908;28;19907;-74
2023/12/30 06:28:27;;;;;;;0.05;0.05;;;;;;;;;;5115874;28;20026;-74
2023/12/30 06:30:54;;;;;;;0.08;0.08;;;4.50;99.90;;;;;;5116098;28;20016;-74
2023/12/30 06:33:22;;;;;;;0.10;0.10;;;4.60;99.90;;;;;;5114411;28;20127;-73
2023/12/30 06:35:48;;;;;;;0.00;0.00;;;4.60;99.90;;;;;;5107984;28;20015;-73
2023/12/30 06:38:18;;;;;;;0.00;0.00;;;4.60;99.90;;;;;;5110428;28;20026;-74
2023/12/30 06:40:45;;;;;;;0.00;0.00;;;4.70;99.90;;;;;;5101131;28;20023;-73
2023/12/30 06:43:12;;;;;;;0.10;0.10;;;4.80;99.90;;;;;;5112040;28;20031;-72
2023/12/30 06:45:56;;;;;;;0.10;0.10;;;4.80;99.90;;;;;;5107017;28;20019;-73
2023/12/30 06:51:27;;;;;;;0.08;0.08;;;4.80;99.90;;;;;;5129121;28;20042;-73
2023/12/30 06:53:56;;;;;;;0.10;0.10;;;4.90;99.90;;;;;;5128775;28;20031;-73
2023/12/30 06:56:23;;;;;;;0.17;0.17;;;5.00;99.90;;;;;;5124759;28;20020;-73
2023/12/30 06:58:51;;;;;;;0.10;0.10;;;4.80;99.90;;;;;;5118901;28;20107;-73
2023/12/30 07:01:20;;;;;;;0.10;0.10;;;5.00;99.90;;;;;;5110808;28;20032;-73
2023/12/30 07:03:45;;;;;;;0.10;0.10;;;5.10;99.90;;;;;;5115672;28;20225;-73
2023/12/30 07:06:11;;;;;;;0.28;0.25;;;5.20;99.90;;;;;;5128605;28;20023;-74
2023/12/30 07:08:37;;;;;;;0.00;0.00;;;5.20;99.90;;;;;;5119561;28;20092;-76
2023/12/30 07:11:05;;;;;;;0.00;0.00;;;5.30;99.90;;;;;;5127574;28;20016;-74
2023/12/30 07:13:31;;;;;;;0.00;0.00;;;5.30;99.90;;;;;;5126683;27;20080;-76
2023/12/30 07:15:57;;;;;;;0.20;0.20;;;;;;;;;;5121409;28;20261;-76
2023/12/30 07:18:23;;;;;;;0.10;0.10;;;;;;;;;;5121262;28;20012;-74
2023/12/30 07:20:50;;;;;;;0.10;0.10;;;5.50;99.90;;;;;;5118749;28;20633;-74
2023/12/30 07:23:16;;;;;;;0.00;0.00;;;5.40;99.90;;;;;;5117575;28;20027;-74
2023/12/30 07:25:43;;;;;;;0.10;0.10;;;5.50;99.90;;;;;;5118544;28;20027;-75
2023/12/30 07:28:11;;;;;;;0.10;0.10;;;4.80;99.90;;;;;;5125288;28;20016;-74
2023/12/30 07:30:37;;;;;;;0.10;0.10;;;5.50;99.90;;;;;;5119855;28;20525;-74
2023/12/30 07:33:03;;;;;;;0.60;0.60;;;5.60;99.90;;;;;;5124143;28;20043;-73
2023/12/30 07:35:30;;;;;;;8.38;7.78;;;5.70;99.90;;;;;;5120179;28;20023;-74
2023/12/30 07:37:55;;;;;;;0.10;0.10;;;5.80;99.90;;;;;;5124008;28;20023;-74
2023/12/30 07:40:32;;;;;;;0.77;0.77;;;5.80;99.90;;;;;;5116098;28;20067;-73
2023/12/30 07:42:58;;;;;;;0.08;0.08;;;5.70;99.90;;;;;;5124442;28;20110;-73
2023/12/30 07:45:24;;;;;;;0.10;0.10;;;5.80;99.90;;;;;;5129467;28;20027;-73
2023/12/30 07:47:50;;;;;;;0.10;0.10;;;5.80;99.90;;;;;;5126159;28;20019;-74
2023/12/30 07:50:23;;;;;;;0.00;0.00;;;5.90;99.90;;;;;;5129376;28;20027;-75
2023/12/30 07:52:50;;;;;;;0.52;0.52;;;5.80;99.90;;;;;;5131232;28;20027;-74
2023/12/30 07:55:17;;;;;;;0.22;0.22;;;6.00;99.90;;;;;;5133728;28;20042;-75
2023/12/30 07:57:43;;;;;;;0.10;0.10;;;6.10;99.90;;;;;;5131269;28;20040;-74
2023/12/30 08:00:15;;;;;;;4.50;3.80;;;6.20;99.90;;;;;;5127455;28;20020;-74
2023/12/30 08:02:44;;;;;;;0.15;0.15;;;6.20;99.90;;;;;;5133215;27;20490;-75
2023/12/30 08:05:14;;;;;;;0.10;0.10;;;6.30;99.90;;;;;;5132743;28;20144;-74
2023/12/30 08:07:57;;;;;;;0.22;0.22;;;6.40;99.90;;;;;;5132484;28;20007;-74
2023/12/30 08:10:24;;;;;;;0.00;0.00;;;8.00;99.90;;;;;;5125409;28;20019;-76
2023/12/30 08:12:50;;;;;;;0.10;0.10;;;;;;;;;;5118214;28;20046;-77
2023/12/30 08:15:16;;;;;;;3.58;3.47;;;6.70;99.90;;;;;;5111886;28;20023;-76
2023/12/30 08:17:42;;;;;;;0.10;0.10;;;6.80;99.90;;;;;;5110304;28;20075;-75
2023/12/30 08:20:10;;;;;;;1.50;1.45;;;6.80;99.90;;;;;;5110703;28;20031;-74
2023/12/30 08:22:46;;;;;;;0.15;0.15;;;6.90;99.90;;;;;;5115172;28;20038;-76
2023/12/30 08:25:13;;;;;;;12.18;11.55;;;7.00;99.90;;;;;;5116906;28;20036;-77
2023/12/30 08:27:42;;;;;;;0.20;0.20;;;7.00;99.90;;;;;;5114290;28;20048;-75
2023/12/30 08:30:08;;;;;;;0.10;0.10;;;4.20;99.90;;;;;;5111852;28;20023;-75
2023/12/30 08:32:34;;;;;;;0.30;0.30;;;7.20;99.90;;;;;;5113108;28;20103;-77
2023/12/30 08:35:07;;;;;;;1.67;1.67;;;7.30;99.90;;;;;;5106108;28;20092;-74
2023/12/30 08:37:33;;;;;;;2.40;2.30;;;7.30;99.90;;;;;;5110189;28;20012;-74
2023/12/30 08:40:00;;;;;;;0.10;0.10;;;7.30;99.90;;;;;;5119402;28;20020;-76
2023/12/30 08:42:34;;;;;;;0.10;0.10;;;7.30;99.90;;;;;;5125652;28;20504;-75
2023/12/30 08:44:59;;;;;;;0.50;0.50;;;7.30;99.90;;;;;;5112983;28;20030;-74
2023/12/30 08:47:25;;;;;;;0.10;0.10;;;7.40;99.90;;;;;;5111846;28;20602;-74
2023/12/30 08:49:52;;;;;;;0.88;0.88;;;6.90;99.90;;;;;;5114440;28;20007;-73
2023/12/30 08:52:24;;;;;;;0.28;0.28;;;7.60;99.90;;;;;;5114512;28;20080;-76
2023/12/30 08:54:58;;;;;;;0.13;0.13;;;7.70;99.90;;;;;;5113553;28;20028;-73
2023/12/30 08:57:24;;;;;;;0.20;0.20;;;7.70;99.90;;;;;;5120100;28;20019;-74
2023/12/30 08:59:49;;;;;;;0.20;0.20;;;7.80;99.90;;;;;;5115612;28;20027;-77
2023/12/30 09:02:30;;;;;;;0.50;0.50;;;7.90;99.90;;;;;;5108174;28;20043;-80
2023/12/30 09:04:56;;;;;;;0.20;0.20;;;7.90;99.90;;;;;;5090137;28;20020;-74
2023/12/30 09:07:22;;;;;;;0.20;0.20;;;8.00;99.90;;;;;;5089420;28;20024;-76
2023/12/30 09:09:47;;;;;;;2.50;2.40;;;8.10;99.90;;;;;;5092265;28;20012;-76
2023/12/30 09:12:13;;;;;;;0.10;0.10;;;8.10;99.90;;;;;;5087412;28;20095;-78
2023/12/30 09:14:48;;;;;;;0.20;0.20;;;8.20;99.90;;;;;;5094867;28;20024;-75
2023/12/30 09:17:18;;;;;;;0.25;0.25;;;8.10;99.90;;;;;;5096553;28;20039;-77
2023/12/30 09:19:46;;;;;;;0.30;0.30;;;8.20;99.90;;;;;;5090833;28;20016;-76
2023/12/30 09:22:36;;;;;;;0.40;0.40;;;8.20;99.90;;;;;;5097407;28;20028;-80
2023/12/30 09:27:37;;;;;;;0.20;0.20;;;8.20;99.90;;;;;;5168601;23;20048;-78
2023/12/30 09:30:09;;;;;;;0.10;0.10;;;8.20;99.90;;;;;;5063450;28;20025;-76
2023/12/30 09:32:35;;;;;;;0.10;0.10;;;7.20;99.90;;;;;;5069369;28;20024;-75
2023/12/30 09:35:07;;;;;;;0.60;0.60;;;8.40;99.90;;;;;;5071821;28;20019;-79
2023/12/30 09:37:35;;;;;;;0.20;0.20;;;8.40;99.90;;;;;;5070079;28;20063;-77
2023/12/30 09:40:05;;;;;;;0.20;0.20;;;8.40;99.90;;;;;;5082086;28;20046;-78
2023/12/30 09:42:33;;;;;;;0.30;0.30;;;8.40;99.90;;;;;;5082043;28;20024;-77
2023/12/30 09:45:06;;;;;;;0.20;0.20;;;8.40;99.90;;;;;;5071075;28;20021;-77
2023/12/30 09:47:39;;;;;;;0.40;0.40;;;8.00;99.90;;;;;;5078984;28;20455;-78
2023/12/30 09:50:07;;;;;;;0.90;0.90;;;9.90;99.90;;;;;;5097866;28;20028;-77
2023/12/30 09:52:41;;;;;;;5.20;4.95;;;8.50;99.90;;;;;;5108480;28;20027;-77
2023/12/30 09:55:10;;;;;;;4.53;4.32;;;8.60;99.90;;;;;;5112414;28;20079;-80
2023/12/30 09:57:39;;;;;;;0.65;0.65;;;8.50;99.90;;;;;;5110354;28;20028;-77
2023/12/30 10:00:11;;;;;;;1.15;1.15;;;8.50;99.90;;;;;;5103401;28;20556;-77
2023/12/30 10:02:38;;;;;;;0.30;0.30;;;8.50;99.90;;;;;;5103307;28;20116;-77
2023/12/30 10:05:04;;;;;;;2.17;2.15;;;8.40;99.90;;;;;;5104010;28;20016;-77
2023/12/30 10:07:33;;;;;;;4.28;3.30;;;8.50;99.90;;;;;;5107693;28;20226;-76
2023/12/30 10:09:59;;;;;;;0.20;0.20;;;8.60;99.90;;;;;;5103073;28;20027;-78
2023/12/30 10:12:26;;;;;;;0.28;0.28;;;8.70;99.90;;;;;;5102988;28;20425;-77
2023/12/30 10:14:51;;;;;;;0.20;0.20;;;7.30;99.90;;;;;;5100679;28;20043;-77
2023/12/30 10:17:18;;;;;;;0.20;0.20;;;8.80;99.90;;;;;;5102334;28;20081;-77
2023/12/30 10:19:45;;;;;;;0.20;0.20;;;8.80;99.90;;;;;;5104226;28;20212;-78
2023/12/30 10:22:12;;;;;;;0.20;0.20;;;8.80;99.90;;;;;;5102807;28;20027;-77
2023/12/30 10:24:38;;;;;;;0.20;0.20;;;8.90;99.90;;;;;;5102892;28;20105;-77
2023/12/30 10:27:04;;;;;;;0.20;0.20;;;;;;;;;;5105654;28;20048;-77
2023/12/30 10:29:33;;;;;;;1.83;1.75;;;8.00;99.90;;;;;;5102338;28;20023;-76
2023/12/30 10:32:04;;;;;;;1.70;1.60;;;9.10;99.90;;;;;;5107654;28;20161;-79
2023/12/30 10:34:31;;;;;;;1.50;1.48;;;9.10;99.90;;;;;;5106142;28;20028;-78
2023/12/30 10:36:59;;;;;;;11.90;10.75;;;9.20;99.90;;;;;;5108612;28;20529;-78
2023/12/30 10:39:25;;;;;;;1.85;1.75;;;9.20;99.90;;;;;;5102502;28;20016;-77
2023/12/30 10:41:51;;;;;;;3.97;3.75;;;9.30;99.90;;;;;;5101936;28;20034;-77
2023/12/30 10:44:19;;;;;;;0.43;0.43;;;9.40;99.90;;;;;;5107003;28;20019;-77
2023/12/30 10:46:49;;;;;;;5.18;4.97;;;9.60;99.90;;;;;;5102546;28;20020;-77
2023/12/30 10:49:17;;;;;;;3.13;2.95;;;9.70;99.90;;;;;;5103354;28;20529;-77
2023/12/30 10:51:43;;;;;;;0.20;0.20;;;9.50;99.90;;;;;;5107154;28;20046;-77
2023/12/30 10:54:19;;;;;;;3.03;2.92;;;10.00;99.90;;;;;;5108813;28;20107;-77
2023/12/30 10:56:58;;;;;;;0.20;0.20;;;10.00;99.90;;;;;;5104021;28;20024;-77
2023/12/30 10:59:28;;;;;;;0.20;0.20;;;10.10;99.90;;;;;;5104630;28;20401;-78
2023/12/30 11:01:56;;;;;;;0.30;0.30;;;10.20;99.90;;;;;;5112950;28;20766;-77
2023/12/30 11:04:25;;;;;;;0.75;0.75;;;10.20;99.90;;;;;;5110996;28;20058;-78
2023/12/30 11:06:57;;;;;;;0.20;0.20;;;10.30;99.90;;;;;;5113136;28;20008;-78
2023/12/30 11:09:35;;;;;;;0.30;0.30;;;10.40;99.90;;;;;;5110319;28;20079;-79
2023/12/30 11:12:02;;;;;;;0.20;0.20;;;10.40;99.90;;;;;;5118548;28;20023;-79
2023/12/30 11:14:39;;;;;;;0.25;0.25;;;10.40;99.90;;;;;;5121765;28;20016;-81
2023/12/30 11:17:05;;;;;;;0.82;0.82;;;10.60;99.90;;;;;;5111097;28;20035;-77
2023/12/30 11:19:32;;;;;;;0.57;0.57;;;10.60;99.90;;;;;;5117010;28;20559;-80
2023/12/30 11:22:01;;;;;;;1.23;1.23;;;10.70;99.90;;;;;;5113927;28;20012;-79
2023/12/30 11:24:27;;;;;;;0.20;0.20;;;10.80;99.90;;;;;;5116150;28;20203;-78
2023/12/30 11:26:55;;;;;;;0.35;0.35;;;10.80;99.90;;;;;;5109024;28;20120;-75
2023/12/30 11:29:26;;;;;;;6.68;6.28;;;10.80;99.90;;;;;;5111643;28;20027;-77
2023/12/30 11:31:59;;;;;;;1.25;1.23;;;10.80;99.90;;;;;;5115551;28;20082;-77
2023/12/30 11:34:26;;;;;;;0.30;0.30;;;10.80;99.90;;;;;;5112257;28;20020;-77
2023/12/30 11:36:54;;;;;;;2.63;2.50;;;10.80;99.90;;;;;;5114270;28;20082;-77
2023/12/30 11:39:30;;;;;;;0.70;0.70;;;10.80;99.90;;;;;;5118505;28;20030;-78
2023/12/30 11:42:03;;;;;;;0.75;0.75;;;10.70;99.90;;;;;;5116215;28;20031;-77
2023/12/30 11:44:29;;;;;;;0.50;0.50;;;10.70;99.90;;;;;;5117230;28;20027;-77
2023/12/30 11:46:56;;;;;;;0.30;0.30;;;10.70;99.90;;;;;;5117228;28;20080;-78
2023/12/30 11:49:24;;;;;;;0.50;0.50;;;10.60;99.90;;;;;;5108080;28;20039;-77
2023/12/30 11:51:51;;;;;;;4.88;4.55;;;10.60;99.90;;;;;;5096308;28;20108;-76
2023/12/30 11:54:17;;;;;;;0.20;0.20;;;10.70;99.90;;;;;;5097381;28;20020;-76
2023/12/30 11:56:48;;;;;;;15.45;6.90;;;10.80;99.90;;;;;;5096044;28;20173;-77
2023/12/30 11:59:15;;;;;;;2.65;2.55;;;10.80;99.90;;;;;;5100459;28;20020;-74
2023/12/30 12:01:46;;;;;;;1.45;1.40;;;10.90;99.90;;;;;;5094691;28;20105;-81
2023/12/30 12:04:13;;;;;;;0.98;0.98;;;10.80;99.90;;;;;;5088457;28;20028;-77
2023/12/30 12:06:47;;;;;;;0.75;0.75;;;10.90;99.90;;;;;;5087932;28;20024;-77
2023/12/30 12:09:13;;;;;;;0.32;0.32;;;10.90;99.90;;;;;;5098654;28;20658;-77
2023/12/30 12:11:39;;;;;;;3.42;3.20;;;11.00;99.90;;;;;;5099774;28;20069;-78
2023/12/30 12:14:05;;;;;;;1.80;1.75;;;11.00;99.90;;;;;;5092973;28;20024;-83
2023/12/30 12:16:32;;;;;;;0.63;0.63;;;11.10;99.90;;;;;;5093122;28;20024;-79
2023/12/30 12:19:03;;;;;;;0.65;0.65;;;11.20;99.90;;;;;;5081625;28;20020;-80
2023/12/30 12:21:30;;;;;;;5.70;5.40;;;11.20;99.90;;;;;;5082769;28;20441;-80
2023/12/30 12:23:57;;;;;;;3.08;2.97;;;11.20;99.90;;;;;;5086594;28;20059;-80
2023/12/30 12:26:28;;;;;;;4.22;4.03;;;11.20;99.90;;;;;;5089073;28;20036;-78
2023/12/30 12:28:55;;;;;;;2.40;2.05;;;11.10;99.90;;;;;;5094212;28;20012;-77
2023/12/30 12:31:21;;;;;;;2.13;2.03;;;11.10;99.90;;;;;;5092965;28;20023;-77
2023/12/30 12:33:48;;;;;;;5.22;4.97;;;11.20;99.90;;;;;;5096257;28;20058;-77
2023/12/30 12:36:15;;;;;;;2.53;2.33;;;;;;;;;;5096985;28;20020;-77
2023/12/30 12:38:41;;;;;;;2.22;2.13;;;11.30;99.90;;;;;;5097077;28;20009;-79
2023/12/30 12:41:10;;;;;;;6.13;5.78;;;11.30;99.90;;;;;;5089304;28;20122;-77
2023/12/30 12:43:36;;;;;;;3.55;3.25;;;11.40;99.90;;;;;;5086650;28;20047;-76
2023/12/30 12:46:03;;;;;;;7.40;6.75;;;11.40;99.90;;;;;;5082799;28;20016;-82
2023/12/30 12:48:29;;;;;;;0.70;0.70;;;11.40;99.90;;;;;;5086188;28;20031;-77
2023/12/30 12:51:03;;;;;;;1.55;1.48;;;11.50;99.90;;;;;;5101841;28;20023;-86
2023/12/30 12:53:31;;;;;;;1.45;1.40;;;11.50;99.90;;;;;;5104820;28;20097;-82
2023/12/30 12:55:57;;;;;;;4.75;4.53;;;11.50;99.90;;;;;;5106104;28;20023;-83
2023/12/30 12:58:27;;;;;;;1.73;1.65;;;11.80;99.90;;;;;;5103075;28;20024;-88
2023/12/30 13:00:53;;;;;;;1.77;1.67;;;12.10;99.90;;;;;;5099034;28;20066;-85
2023/12/30 13:03:20;;;;;;;4.70;4.47;;;12.30;99.90;;;;;;5100445;28;20039;-86
2023/12/30 13:05:46;;;;;;;0.55;0.55;;;12.20;99.90;;;;;;5100955;28;20745;-81
2023/12/30 13:08:12;;;;;;;1.50;1.50;;;12.30;99.90;;;;;;5100692;28;20016;-87